📊 Raw Sensor Data

Showing records 46326 to 46350 of 85,069 total

ID Distance (ft) Battery V Battery A Int Temp (°F) Int Humid (%) Ext Temp (°F) Solar V RSSI SNR Time Stamp
38756 -- 4.00 -5 52 43 52 0.00 -80 8 04/24/2025 09:00 PM
38755 -- 3.94 -5 52 43 52 0.00 -78 8 04/24/2025 08:45 PM
38754 -- 3.94 -5 52 43 52 0.00 -78 8 04/24/2025 08:30 PM
38753 -- 3.94 -5 53 44 53 0.00 -80 7 04/24/2025 08:15 PM
38752 -- 4.00 -5 53 44 53 0.60 -78 7 04/24/2025 08:01 PM
38751 -- 3.93 -10 54 44 54 3.10 -77 8 04/24/2025 07:45 PM
38750 -- 3.95 0 55 44 55 4.50 -78 8 04/24/2025 07:31 PM
38749 -- 4.03 5 56 44 55 4.50 -78 8 04/24/2025 07:15 PM
38748 -- 4.00 -9 57 45 56 4.50 -79 8 04/24/2025 07:00 PM
38747 -- 4.01 24 58 45 57 4.50 -81 7 04/24/2025 06:45 PM
38746 -- 4.06 15 59 45 57 4.50 -79 7 04/24/2025 06:30 PM
38745 -- 3.98 5 62 45 59 5.10 -78 8 04/24/2025 06:00 PM
38744 -- 3.99 5 63 45 60 5.10 -80 8 04/24/2025 05:45 PM
38743 -- 3.98 5 64 45 61 5.10 -79 9 04/24/2025 05:30 PM
38742 -- 4.05 0 66 45 62 5.10 -79 9 04/24/2025 05:15 PM
38741 -- 4.03 5 67 45 63 5.10 -77 8 04/24/2025 05:00 PM
38740 -- 3.99 5 69 45 64 5.10 -78 8 04/24/2025 04:45 PM
38739 -- 3.98 5 71 44 64 5.10 -80 7 04/24/2025 04:30 PM
38738 -- 4.00 5 71 45 65 5.10 -76 9 04/24/2025 04:15 PM
38737 -- 4.13 5 73 44 64 5.10 -78 8 04/24/2025 04:00 PM
38736 -- 3.98 5 76 42 69 5.10 -75 8 04/24/2025 03:45 PM
38735 -- 3.98 0 76 41 67 5.10 -78 8 04/24/2025 03:30 PM
38734 -- 3.98 0 75 42 68 5.10 -80 8 04/24/2025 03:15 PM
38733 -- 4.13 5 78 40 67 5.10 -83 8 04/24/2025 03:00 PM
38732 -- 3.98 0 77 40 69 5.10 -78 9 04/24/2025 02:45 PM